sensor_id;sensor_type;location;lat;lon;timestamp;pressure;altitude;pressure_sealevel;temperature;humidity
44001;BME280;29660;42.892;24.710;2022-11-02T00:01:20;97273.78;;;6.91;93.79
44001;BME280;29660;42.892;24.710;2022-11-02T00:06:24;97414.06;;;7.72;94.67
44001;BME280;29660;42.892;24.710;2022-11-02T00:11:26;97499.88;;;8.25;94.57
44001;BME280;29660;42.892;24.710;2022-11-02T00:16:29;97556.09;;;8.54;94.66
44001;BME280;29660;42.892;24.710;2022-11-02T00:21:31;97452.63;;;7.85;94.17
44001;BME280;29660;42.892;24.710;2022-11-02T00:26:35;97264.84;;;6.60;94.04
44001;BME280;29660;42.892;24.710;2022-11-02T00:31:37;97529.63;;;8.27;94.85
44001;BME280;29660;42.892;24.710;2022-11-02T00:36:39;97553.56;;;8.32;95.59
44001;BME280;29660;42.892;24.710;2022-11-02T00:41:41;97517.34;;;8.16;95.35
44001;BME280;29660;42.892;24.710;2022-11-02T00:46:43;97301.22;;;6.70;95.01
44001;BME280;29660;42.892;24.710;2022-11-02T00:51:46;97554.34;;;8.33;94.61
44001;BME280;29660;42.892;24.710;2022-11-02T00:56:49;97524.53;;;8.21;94.42
44001;BME280;29660;42.892;24.710;2022-11-02T01:01:51;97269.81;;;6.51;94.10
44001;BME280;29660;42.892;24.710;2022-11-02T01:06:53;97425.88;;;7.49;94.01
44001;BME280;29660;42.892;24.710;2022-11-02T01:11:56;97457.84;;;7.70;94.58
44001;BME280;29660;42.892;24.710;2022-11-02T01:16:58;97513.28;;;8.03;94.42
44001;BME280;29660;42.892;24.710;2022-11-02T01:22:00;97230.66;;;6.21;94.33
44001;BME280;29660;42.892;24.710;2022-11-02T01:27:02;97531.91;;;8.08;95.32
44001;BME280;29660;42.892;24.710;2022-11-02T01:32:04;97263.38;;;6.37;95.58
44001;BME280;29660;42.892;24.710;2022-11-02T01:37:06;97453.00;;;7.56;95.88
44001;BME280;29660;42.892;24.710;2022-11-02T01:42:23;97464.97;;;7.59;96.67
44001;BME280;29660;42.892;24.710;2022-11-02T01:47:36;97515.09;;;7.93;96.08
44001;BME280;29660;42.892;24.710;2022-11-02T01:52:39;97509.75;;;7.87;96.15
44001;BME280;29660;42.892;24.710;2022-11-02T01:57:45;97345.25;;;6.76;96.20
44001;BME280;29660;42.892;24.710;2022-11-02T02:08:13;97242.50;;;6.13;95.96
44001;BME280;29660;42.892;24.710;2022-11-02T02:13:17;97224.34;;;5.95;95.54
44001;BME280;29660;42.892;24.710;2022-11-02T02:18:37;97502.47;;;7.73;95.83
44001;BME280;29660;42.892;24.710;2022-11-02T02:29:09;97518.63;;;7.66;95.46
44001;BME280;29660;42.892;24.710;2022-11-02T02:34:18;97273.53;;;6.18;94.94
44001;BME280;29660;42.892;24.710;2022-11-02T02:39:46;97501.56;;;7.57;95.40
44001;BME280;29660;42.892;24.710;2022-11-02T02:50:24;97440.44;;;7.04;95.52
44001;BME280;29660;42.892;24.710;2022-11-02T02:55:33;97508.94;;;7.50;96.61
44001;BME280;29660;42.892;24.710;2022-11-02T03:00:38;97478.25;;;7.27;96.93
44001;BME280;29660;42.892;24.710;2022-11-02T03:05:40;97233.00;;;5.63;96.34
44001;BME280;29660;42.892;24.710;2022-11-02T03:10:52;97420.59;;;6.80;95.96
44001;BME280;29660;42.892;24.710;2022-11-02T03:16:02;97504.63;;;7.38;95.66
44001;BME280;29660;42.892;24.710;2022-11-02T03:26:32;97524.00;;;7.39;95.68
44001;BME280;29660;42.892;24.710;2022-11-02T03:37:09;97237.69;;;5.56;95.87
44001;BME280;29660;42.892;24.710;2022-11-02T03:42:16;97491.69;;;7.15;95.54
44001;BME280;29660;42.892;24.710;2022-11-02T03:47:21;97194.53;;;5.29;95.21
44001;BME280;29660;42.892;24.710;2022-11-02T03:52:28;97234.97;;;5.51;94.86
44001;BME280;29660;42.892;24.710;2022-11-02T03:57:35;97211.50;;;5.33;94.71
44001;BME280;29660;42.892;24.710;2022-11-02T04:02:40;97264.25;;;5.66;95.06
44001;BME280;29660;42.892;24.710;2022-11-02T04:07:49;97458.28;;;6.87;95.09
44001;BME280;29660;42.892;24.710;2022-11-02T04:13:12;97447.59;;;6.77;95.16
44001;BME280;29660;42.892;24.710;2022-11-02T04:18:32;97465.22;;;6.88;95.17
44001;BME280;29660;42.892;24.710;2022-11-02T04:23:53;97250.38;;;5.54;94.82
44001;BME280;29660;42.892;24.710;2022-11-02T04:29:14;97507.38;;;7.17;94.27
44001;BME280;29660;42.892;24.710;2022-11-02T04:34:17;97260.56;;;5.68;94.62
44001;BME280;29660;42.892;24.710;2022-11-02T04:39:19;97454.38;;;6.95;94.53
44001;BME280;29660;42.892;24.710;2022-11-02T04:44:21;97197.16;;;5.29;93.95
44001;BME280;29660;42.892;24.710;2022-11-02T04:49:32;97222.25;;;5.48;93.52
44001;BME280;29660;42.892;24.710;2022-11-02T04:54:34;97237.69;;;5.56;93.28
44001;BME280;29660;42.892;24.710;2022-11-02T04:59:39;97511.91;;;7.21;93.40
44001;BME280;29660;42.892;24.710;2022-11-02T05:04:42;97506.41;;;7.28;93.36
44001;BME280;29660;42.892;24.710;2022-11-02T05:09:44;97315.56;;;6.09;92.90
44001;BME280;29660;42.892;24.710;2022-11-02T05:14:47;97492.88;;;7.29;93.71
44001;BME280;29660;42.892;24.710;2022-11-02T05:19:49;97215.41;;;5.52;93.63
44001;BME280;29660;42.892;24.710;2022-11-02T05:24:53;97456.06;;;7.06;93.71
44001;BME280;29660;42.892;24.710;2022-11-02T05:29:55;97469.19;;;7.23;93.48
44001;BME280;29660;42.892;24.710;2022-11-02T05:34:58;97523.06;;;7.55;93.07
44001;BME280;29660;42.892;24.710;2022-11-02T05:40:00;97271.22;;;6.00;92.99
44001;BME280;29660;42.892;24.710;2022-11-02T05:45:03;97534.84;;;7.70;91.93
44001;BME280;29660;42.892;24.710;2022-11-02T05:50:05;97473.41;;;7.51;92.32
44001;BME280;29660;42.892;24.710;2022-11-02T05:55:07;97509.97;;;7.81;92.90
44001;BME280;29660;42.892;24.710;2022-11-02T06:00:09;97529.72;;;7.95;93.18
44001;BME280;29660;42.892;24.710;2022-11-02T06:05:13;97291.06;;;6.56;92.00
44001;BME280;29660;42.892;24.710;2022-11-02T06:10:15;97353.50;;;7.11;92.40
44001;BME280;29660;42.892;24.710;2022-11-02T06:15:17;97112.88;;;5.64;92.62
44001;BME280;29660;42.892;24.710;2022-11-02T06:20:19;97223.28;;;6.66;91.27
44001;BME280;29660;42.892;24.710;2022-11-02T06:25:21;97325.59;;;7.51;91.21
44001;BME280;29660;42.892;24.710;2022-11-02T06:30:24;97262.91;;;7.35;90.08
44001;BME280;29660;42.892;24.710;2022-11-02T06:35:26;97527.56;;;9.28;89.63
44001;BME280;29660;42.892;24.710;2022-11-02T06:40:28;97259.84;;;7.84;88.16
44001;BME280;29660;42.892;24.710;2022-11-02T06:45:30;97202.47;;;7.78;86.96
44001;BME280;29660;42.892;24.710;2022-11-02T06:50:32;97247.22;;;8.37;85.53
44001;BME280;29660;42.892;24.710;2022-11-02T06:55:34;97492.00;;;10.24;84.77
44001;BME280;29660;42.892;24.710;2022-11-02T07:00:36;97418.19;;;10.20;82.49
44001;BME280;29660;42.892;24.710;2022-11-02T07:05:38;97266.84;;;9.62;80.38
44001;BME280;29660;42.892;24.710;2022-11-02T07:10:40;97347.66;;;10.51;79.54
44001;BME280;29660;42.892;24.710;2022-11-02T07:15:42;97339.38;;;10.87;77.70
44001;BME280;29660;42.892;24.710;2022-11-02T07:20:44;97521.31;;;12.26;77.03
44001;BME280;29660;42.892;24.710;2022-11-02T07:25:46;97489.31;;;12.64;75.51
44001;BME280;29660;42.892;24.710;2022-11-02T07:30:48;97259.63;;;11.58;73.12
44001;BME280;29660;42.892;24.710;2022-11-02T07:35:54;97456.97;;;13.17;70.85
44001;BME280;29660;42.892;24.710;2022-11-02T07:40:56;97418.06;;;13.38;68.00
44001;BME280;29660;42.892;24.710;2022-11-02T07:46:01;97045.97;;;11.39;64.30
44001;BME280;29660;42.892;24.710;2022-11-02T07:51:04;97364.31;;;13.90;63.75
44001;BME280;29660;42.892;24.710;2022-11-02T07:56:07;97417.66;;;14.69;61.53
44001;BME280;29660;42.892;24.710;2022-11-02T08:01:09;97069.50;;;12.90;58.70
44001;BME280;29660;42.892;24.710;2022-11-02T08:06:11;97235.56;;;14.40;57.89
44001;BME280;29660;42.892;24.710;2022-11-02T08:11:13;97267.06;;;15.02;56.39
44001;BME280;29660;42.892;24.710;2022-11-02T08:16:18;97234.53;;;15.12;53.08
44001;BME280;29660;42.892;24.710;2022-11-02T08:21:20;97270.69;;;15.77;52.01
44001;BME280;29660;42.892;24.710;2022-11-02T08:26:22;97438.34;;;17.30;50.09
44001;BME280;29660;42.892;24.710;2022-11-02T08:31:23;97147.78;;;15.77;49.31
44001;BME280;29660;42.892;24.710;2022-11-02T08:36:25;97203.56;;;16.50;46.85
44001;BME280;29660;42.892;24.710;2022-11-02T08:41:27;97302.69;;;17.47;47.01
44001;BME280;29660;42.892;24.710;2022-11-02T08:46:29;97331.00;;;18.00;46.01
44001;BME280;29660;42.892;24.710;2022-11-02T08:51:31;97201.63;;;17.53;44.86
44001;BME280;29660;42.892;24.710;2022-11-02T08:56:33;97427.00;;;19.44;43.69
44001;BME280;29660;42.892;24.710;2022-11-02T09:01:35;97278.25;;;18.86;42.58
44001;BME280;29660;42.892;24.710;2022-11-02T09:06:37;97375.03;;;20.20;39.16
44001;BME280;29660;42.892;24.710;2022-11-02T09:11:39;97424.09;;;21.08;39.66
44001;BME280;29660;42.892;24.710;2022-11-02T09:16:41;97028.41;;;18.83;38.11
44001;BME280;29660;42.892;24.710;2022-11-02T09:21:43;97419.00;;;21.78;38.52
44001;BME280;29660;42.892;24.710;2022-11-02T09:26:45;97203.72;;;20.79;36.21
44001;BME280;29660;42.892;24.710;2022-11-02T09:31:49;97399.31;;;22.29;34.64
44001;BME280;29660;42.892;24.710;2022-11-02T09:36:50;97232.16;;;21.49;35.77
44001;BME280;29660;42.892;24.710;2022-11-02T09:42:04;96975.44;;;20.07;34.45
44001;BME280;29660;42.892;24.710;2022-11-02T09:47:10;97169.91;;;21.56;34.70
44001;BME280;29660;42.892;24.710;2022-11-02T09:52:35;97215.91;;;22.03;35.68
44001;BME280;29660;42.892;24.710;2022-11-02T09:57:38;97190.53;;;21.96;35.48
44001;BME280;29660;42.892;24.710;2022-11-02T10:18:57;97275.00;;;23.03;34.19
44001;BME280;29660;42.892;24.710;2022-11-02T10:24:10;97314.31;;;23.52;32.43
44001;BME280;29660;42.892;24.710;2022-11-02T10:29:18;97316.84;;;23.64;32.48
44001;BME280;29660;42.892;24.710;2022-11-02T10:34:27;97142.84;;;22.57;32.24
44001;BME280;29660;42.892;24.710;2022-11-02T10:40:00;97350.72;;;24.13;33.14
44001;BME280;29660;42.892;24.710;2022-11-02T11:01:12;96962.19;;;21.81;32.48
44001;BME280;29660;42.892;24.710;2022-11-02T11:06:14;97338.50;;;24.30;32.39
44001;BME280;29660;42.892;24.710;2022-11-02T11:16:50;97333.94;;;24.37;32.24
44001;BME280;29660;42.892;24.710;2022-11-02T11:21:53;96934.75;;;21.87;32.51
44001;BME280;29660;42.892;24.710;2022-11-02T11:32:30;97332.81;;;24.38;31.41
44001;BME280;29660;42.892;24.710;2022-11-02T11:37:32;97043.59;;;22.66;31.82
44001;BME280;29660;42.892;24.710;2022-11-02T11:42:35;97236.09;;;23.98;31.90
44001;BME280;29660;42.892;24.710;2022-11-02T11:47:39;97092.50;;;23.12;31.23
44001;BME280;29660;42.892;24.710;2022-11-02T11:52:43;97191.75;;;23.71;31.01
44001;BME280;29660;42.892;24.710;2022-11-02T11:57:45;97239.75;;;24.10;31.08
44001;BME280;29660;42.892;24.710;2022-11-02T12:03:10;97248.75;;;24.14;30.13
44001;BME280;29660;42.892;24.710;2022-11-02T12:08:33;97299.75;;;24.43;29.95
44001;BME280;29660;42.892;24.710;2022-11-02T12:51:26;97256.16;;;23.87;30.79
44001;BME280;29660;42.892;24.710;2022-11-02T12:56:42;97073.97;;;22.72;31.46
44001;BME280;29660;42.892;24.710;2022-11-02T13:01:48;97216.06;;;23.61;31.12
44001;BME280;29660;42.892;24.710;2022-11-02T13:07:14;97256.88;;;23.84;31.64
44001;BME280;29660;42.892;24.710;2022-11-02T13:12:23;96992.88;;;22.05;32.25
44001;BME280;29660;42.892;24.710;2022-11-02T13:17:42;97051.59;;;22.33;30.80
44001;BME280;29660;42.892;24.710;2022-11-02T13:22:51;97067.84;;;22.52;27.12
44001;BME280;29660;42.892;24.710;2022-11-02T13:28:23;97248.72;;;23.61;27.51
44001;BME280;29660;42.892;24.710;2022-11-02T13:33:39;97252.44;;;23.49;28.14
44001;BME280;29660;42.892;24.710;2022-11-02T13:38:54;96995.06;;;21.76;28.89
44001;BME280;29660;42.892;24.710;2022-11-02T13:44:17;97219.66;;;23.15;27.99
44001;BME280;29660;42.892;24.710;2022-11-02T13:49:29;97163.25;;;22.70;28.55
44001;BME280;29660;42.892;24.710;2022-11-02T13:54:35;97229.13;;;23.02;28.97
44001;BME280;29660;42.892;24.710;2022-11-02T13:59:43;97061.19;;;21.88;28.95
44001;BME280;29660;42.892;24.710;2022-11-02T14:04:47;97037.22;;;21.70;28.25
44001;BME280;29660;42.892;24.710;2022-11-02T14:09:56;97044.50;;;21.66;28.83
44001;BME280;29660;42.892;24.710;2022-11-02T14:41:48;97266.50;;;21.92;30.82
44001;BME280;29660;42.892;24.710;2022-11-02T14:46:55;97255.16;;;21.71;31.14
44001;BME280;29660;42.892;24.710;2022-11-02T14:57:23;97024.47;;;19.74;32.27
44001;BME280;29660;42.892;24.710;2022-11-02T15:02:36;97250.34;;;21.01;32.95
44001;BME280;29660;42.892;24.710;2022-11-02T15:07:49;97256.94;;;20.72;33.53
44001;BME280;29660;42.892;24.710;2022-11-02T15:18:30;97260.88;;;20.06;36.18
44001;BME280;29660;42.892;24.710;2022-11-02T15:23:39;97096.13;;;18.54;37.17
44001;BME280;29660;42.892;24.710;2022-11-02T15:28:46;97269.34;;;19.31;37.42
44001;BME280;29660;42.892;24.710;2022-11-02T15:33:53;97217.81;;;18.70;37.49
44001;BME280;29660;42.892;24.710;2022-11-02T15:38:56;97283.28;;;18.75;38.08
44001;BME280;29660;42.892;24.710;2022-11-02T16:00:38;97314.28;;;17.85;40.48
44001;BME280;29660;42.892;24.710;2022-11-02T16:05:43;97322.41;;;17.77;40.45
44001;BME280;29660;42.892;24.710;2022-11-02T16:10:47;97124.31;;;16.21;41.11
44001;BME280;29660;42.892;24.710;2022-11-02T16:15:49;97114.53;;;15.82;42.02
44001;BME280;29660;42.892;24.710;2022-11-02T16:21:04;97348.75;;;17.15;42.61
44001;BME280;29660;42.892;24.710;2022-11-02T16:26:14;97092.69;;;15.31;44.17
44001;BME280;29660;42.892;24.710;2022-11-02T16:31:22;97071.13;;;14.96;43.43
44001;BME280;29660;42.892;24.710;2022-11-02T16:36:30;97085.31;;;14.88;43.91
44001;BME280;29660;42.892;24.710;2022-11-02T16:41:33;97056.41;;;14.45;44.31
44001;BME280;29660;42.892;24.710;2022-11-02T16:52:05;97214.78;;;15.08;46.12
44001;BME280;29660;42.892;24.710;2022-11-02T16:57:21;97384.28;;;15.91;47.17
44001;BME280;29660;42.892;24.710;2022-11-02T17:08:01;97399.13;;;15.49;48.78
44001;BME280;29660;42.892;24.710;2022-11-02T17:13:14;97116.50;;;13.60;48.38
44001;BME280;29660;42.892;24.710;2022-11-02T17:18:27;97300.88;;;14.58;48.94
44001;BME280;29660;42.892;24.710;2022-11-02T17:23:32;97190.22;;;13.57;49.50
44001;BME280;29660;42.892;24.710;2022-11-02T17:28:46;97165.94;;;13.40;50.11
44001;BME280;29660;42.892;24.710;2022-11-02T17:33:49;97217.94;;;13.53;50.73
44001;BME280;29660;42.892;24.710;2022-11-02T17:38:53;97404.88;;;14.66;51.09
44001;BME280;29660;42.892;24.710;2022-11-02T17:44:14;97415.50;;;14.57;52.08
44001;BME280;29660;42.892;24.710;2022-11-02T17:49:16;97355.28;;;13.99;52.06
44001;BME280;29660;42.892;24.710;2022-11-02T17:54:18;97239.53;;;13.15;52.59
44001;BME280;29660;42.892;24.710;2022-11-02T17:59:20;97361.25;;;13.69;53.28
44001;BME280;29660;42.892;24.710;2022-11-02T18:04:22;97371.88;;;13.74;53.34
44001;BME280;29660;42.892;24.710;2022-11-02T18:09:24;97159.28;;;12.22;54.08
44001;BME280;29660;42.892;24.710;2022-11-02T18:14:29;97142.31;;;11.99;55.91
44001;BME280;29660;42.892;24.710;2022-11-02T18:19:31;97368.16;;;13.29;56.81
44001;BME280;29660;42.892;24.710;2022-11-02T18:24:34;97202.41;;;12.01;57.07
44001;BME280;29660;42.892;24.710;2022-11-02T18:29:36;97366.22;;;12.96;57.00
44001;BME280;29660;42.892;24.710;2022-11-02T18:34:38;97396.78;;;12.95;58.04
44001;BME280;29660;42.892;24.710;2022-11-02T18:39:40;97414.94;;;12.98;58.70
44001;BME280;29660;42.892;24.710;2022-11-02T18:44:42;97445.47;;;12.97;58.81
44001;BME280;29660;42.892;24.710;2022-11-02T18:49:44;97370.69;;;12.49;59.27
44001;BME280;29660;42.892;24.710;2022-11-02T18:54:46;97124.84;;;10.88;59.34
44001;BME280;29660;42.892;24.710;2022-11-02T18:59:48;97179.56;;;11.10;60.26
44001;BME280;29660;42.892;24.710;2022-11-02T19:04:51;97351.03;;;12.02;60.71
44001;BME280;29660;42.892;24.710;2022-11-02T19:09:53;97171.69;;;10.75;60.88
44001;BME280;29660;42.892;24.710;2022-11-02T19:14:57;97272.78;;;11.30;61.21
44001;BME280;29660;42.892;24.710;2022-11-02T19:19:59;97390.69;;;11.95;61.88
44001;BME280;29660;42.892;24.710;2022-11-02T19:25:01;97358.06;;;11.69;61.63
44001;BME280;29660;42.892;24.710;2022-11-02T19:30:04;97146.31;;;10.20;64.24
44001;BME280;29660;42.892;24.710;2022-11-02T19:35:06;97397.03;;;11.75;63.64
44001;BME280;29660;42.892;24.710;2022-11-02T19:40:08;97397.97;;;11.61;65.33
44001;BME280;29660;42.892;24.710;2022-11-02T19:45:10;97257.16;;;10.65;66.46
44001;BME280;29660;42.892;24.710;2022-11-02T19:50:17;97332.81;;;11.03;66.77
44001;BME280;29660;42.892;24.710;2022-11-02T19:55:19;97455.56;;;11.72;66.90
44001;BME280;29660;42.892;24.710;2022-11-02T20:00:23;97170.34;;;9.80;67.16
44001;BME280;29660;42.892;24.710;2022-11-02T20:05:25;97168.56;;;9.71;67.66
44001;BME280;29660;42.892;24.710;2022-11-02T20:10:27;97166.94;;;9.70;67.64
44001;BME280;29660;42.892;24.710;2022-11-02T20:15:29;97456.41;;;11.38;68.08
44001;BME280;29660;42.892;24.710;2022-11-02T20:20:31;97471.78;;;11.51;68.03
44001;BME280;29660;42.892;24.710;2022-11-02T20:25:36;97406.50;;;11.04;69.33
44001;BME280;29660;42.892;24.710;2022-11-02T20:30:41;97200.53;;;9.71;70.10
44001;BME280;29660;42.892;24.710;2022-11-02T20:35:44;97463.06;;;11.41;69.63
44001;BME280;29660;42.892;24.710;2022-11-02T20:40:47;97168.41;;;9.52;70.77
44001;BME280;29660;42.892;24.710;2022-11-02T20:45:49;97208.38;;;9.86;69.75
44001;BME280;29660;42.892;24.710;2022-11-02T20:50:50;97439.06;;;11.36;70.74
44001;BME280;29660;42.892;24.710;2022-11-02T20:55:53;97341.31;;;10.76;69.14
44001;BME280;29660;42.892;24.710;2022-11-02T21:00:55;97440.44;;;11.33;69.68
44001;BME280;29660;42.892;24.710;2022-11-02T21:06:01;97436.97;;;11.33;70.93
44001;BME280;29660;42.892;24.710;2022-11-02T21:11:03;97122.00;;;9.24;71.75
44001;BME280;29660;42.892;24.710;2022-11-02T21:16:25;97465.97;;;11.44;71.87
44001;BME280;29660;42.892;24.710;2022-11-02T21:21:27;97430.00;;;11.31;70.15
44001;BME280;29660;42.892;24.710;2022-11-02T21:26:29;97430.97;;;11.12;71.03
44001;BME280;29660;42.892;24.710;2022-11-02T21:31:31;97369.53;;;10.88;71.51
44001;BME280;29660;42.892;24.710;2022-11-02T21:36:33;97462.28;;;11.40;71.43
44001;BME280;29660;42.892;24.710;2022-11-02T21:41:35;97164.38;;;9.54;71.42
44001;BME280;29660;42.892;24.710;2022-11-02T21:46:39;97222.53;;;9.81;73.10
44001;BME280;29660;42.892;24.710;2022-11-02T21:51:41;97175.59;;;9.51;71.05
44001;BME280;29660;42.892;24.710;2022-11-02T21:56:43;97438.38;;;11.20;73.17
44001;BME280;29660;42.892;24.710;2022-11-02T22:01:46;97143.28;;;9.24;72.89
44001;BME280;29660;42.892;24.710;2022-11-02T22:06:51;97300.38;;;10.23;74.00
44001;BME280;29660;42.892;24.710;2022-11-02T22:11:53;97439.03;;;11.06;72.89
44001;BME280;29660;42.892;24.710;2022-11-02T22:17:15;97172.41;;;9.49;73.55
44001;BME280;29660;42.892;24.710;2022-11-02T22:22:37;97417.75;;;10.96;74.04
44001;BME280;29660;42.892;24.710;2022-11-02T22:27:39;97377.38;;;10.74;74.06
44001;BME280;29660;42.892;24.710;2022-11-02T22:32:41;97367.31;;;10.61;74.50
44001;BME280;29660;42.892;24.710;2022-11-02T22:37:43;97448.38;;;11.09;74.15
44001;BME280;29660;42.892;24.710;2022-11-02T22:43:03;97215.50;;;9.56;73.97
44001;BME280;29660;42.892;24.710;2022-11-02T22:48:06;97184.50;;;9.26;75.26
44001;BME280;29660;42.892;24.710;2022-11-02T22:53:08;97249.00;;;9.68;74.86
44001;BME280;29660;42.892;24.710;2022-11-02T22:58:10;97455.16;;;10.91;75.62
44001;BME280;29660;42.892;24.710;2022-11-02T23:03:12;97432.44;;;10.54;76.66
44001;BME280;29660;42.892;24.710;2022-11-02T23:08:14;97222.28;;;9.28;75.66
44001;BME280;29660;42.892;24.710;2022-11-02T23:13:16;97198.16;;;9.04;75.21
44001;BME280;29660;42.892;24.710;2022-11-02T23:18:18;97296.94;;;9.63;76.02
44001;BME280;29660;42.892;24.710;2022-11-02T23:23:39;97455.34;;;10.61;77.47
44001;BME280;29660;42.892;24.710;2022-11-02T23:29:00;97394.78;;;10.12;77.37
44001;BME280;29660;42.892;24.710;2022-11-02T23:34:20;97470.31;;;10.51;76.73
44001;BME280;29660;42.892;24.710;2022-11-02T23:39:22;97264.91;;;9.13;79.27
44001;BME280;29660;42.892;24.710;2022-11-02T23:44:42;97501.09;;;10.34;80.25
44001;BME280;29660;42.892;24.710;2022-11-02T23:49:44;97365.41;;;9.47;79.47
44001;BME280;29660;42.892;24.710;2022-11-02T23:54:46;97493.91;;;10.19;79.39
